Time;durP1;ratioP1;P1;durP2;ratioP2;P2;SDS_P1;SDS_P2;PMS_P1;PMS_P2;Temp;Humidity;BMP_temperature;BMP_pressure;BME280_temperature;BME280_humidity;BME280_pressure;Samples;Min_cycle;Max_cycle;Signal;HPM_P1;HPM_P2
2021/09/12 00:01:55;;;;;;;;;;;16.30;72.50;;;;;;5075242;28;19913;-77
2021/09/12 00:04:21;;;;;;;;;;;16.20;72.40;;;;;;5075148;28;19913;-77
2021/09/12 00:06:47;;;;;;;;;;;16.20;72.80;;;;;;5075093;28;19912;-77
2021/09/12 00:09:13;;;;;;;;;;;16.20;73.20;;;;;;5057083;28;19996;-77
2021/09/12 00:11:38;;;;;;;;;;;16.20;72.90;;;;;;5074954;28;19948;-77
2021/09/12 00:14:04;;;;;;;;;;;16.20;72.90;;;;;;5074811;28;19925;-77
2021/09/12 00:16:30;;;;;;;;;;;16.10;72.50;;;;;;5076553;28;19917;-77
2021/09/12 00:18:55;;;;;;;;;;;16.10;71.50;;;;;;5074890;28;19920;-77
2021/09/12 00:21:21;;;;;;;;;;;16.10;72.80;;;;;;5056873;28;20393;-77
2021/09/12 00:23:46;;;;;;;;;;;16.10;71.60;;;;;;5074693;28;19908;-77
2021/09/12 00:26:12;;;;;;;;;;;16.10;72.50;;;;;;5074695;28;19962;-77
2021/09/12 00:28:37;;;;;;;;;;;16.10;73.50;;;;;;5074639;28;19939;-77
2021/09/12 00:31:03;;;;;;;;;;;16.10;73.80;;;;;;5074598;28;19967;-77
2021/09/12 00:33:31;;;;;;;;;;;16.10;71.90;;;;;;5074516;28;19909;-77
2021/09/12 00:35:57;;;;;;;;;;;16.00;73.30;;;;;;5074874;28;19920;-77
2021/09/12 00:38:22;;;;;;;;;;;16.00;73.10;;;;;;5074515;28;20347;-77
2021/09/12 00:40:48;;;;;;;;;;;16.00;72.80;;;;;;5074767;28;20003;-77
2021/09/12 00:43:13;;;;;;;;;;;16.00;73.20;;;;;;5074292;28;19916;-77
2021/09/12 00:45:39;;;;;;;;;;;16.00;73.20;;;;;;5056555;28;19917;-77
2021/09/12 00:48:06;;;;;;;;;;;16.00;72.90;;;;;;5074251;28;19955;-77
2021/09/12 00:50:32;;;;;;;;;;;16.00;73.00;;;;;;5074534;28;19916;-77
2021/09/12 00:53:00;;;;;;;;;;;15.90;73.90;;;;;;5056249;28;19971;-77
2021/09/12 00:55:26;;;;;;;;;;;15.90;72.70;;;;;;5074286;28;19978;-77
2021/09/12 00:57:51;;;;;;;;;;;15.90;74.00;;;;;;5056204;28;20316;-77
2021/09/12 01:00:17;;;;;;;;;;;15.90;73.80;;;;;;5074310;28;20411;-77
2021/09/12 01:02:43;;;;;;;;;;;15.90;75.10;;;;;;5074013;28;20003;-77
2021/09/12 01:05:09;;;;;;;;;;;15.80;75.50;;;;;;5055987;28;19948;-77
2021/09/12 01:07:35;;;;;;;;;;;15.80;74.50;;;;;;5073875;28;19912;-77
2021/09/12 01:10:02;;;;;;;;;;;15.80;74.30;;;;;;5074182;28;19916;-77
2021/09/12 01:12:28;;;;;;;;;;;15.80;74.80;;;;;;5073871;28;20053;-77
2021/09/12 01:14:56;;;;;;;;;;;15.80;75.00;;;;;;5075015;28;20453;-77
2021/09/12 01:17:25;;;;;;;;;;;15.70;75.10;;;;;;5073761;28;20365;-77
2021/09/12 01:19:51;;;;;;;;;;;15.80;74.20;;;;;;5055886;28;20293;-77
2021/09/12 01:22:16;;;;;;;;;;;15.70;75.60;;;;;;5073770;28;19909;-77
2021/09/12 01:24:42;;;;;;;;;;;15.70;75.50;;;;;;5074004;28;19917;-77
2021/09/12 01:27:08;;;;;;;;;;;15.70;74.90;;;;;;5073720;28;19908;-77
2021/09/12 01:29:34;;;;;;;;;;;15.70;75.50;;;;;;5073879;28;19916;-77
2021/09/12 01:32:00;;;;;;;;;;;15.60;74.80;;;;;;5073240;28;20392;-77
2021/09/12 01:34:25;;;;;;;;;;;15.60;72.80;;;;;;5073738;28;19920;-77
2021/09/12 01:36:51;;;;;;;;;;;15.60;75.10;;;;;;5073759;28;19912;-77
2021/09/12 01:39:16;;;;;;;;;;;15.60;75.50;;;;;;5055618;28;19913;-77
2021/09/12 01:41:42;;;;;;;;;;;15.50;77.70;;;;;;5055727;28;20377;-78
2021/09/12 01:44:08;;;;;;;;;;;15.50;76.60;;;;;;5073520;28;19913;-77
2021/09/12 01:46:33;;;;;;;;;;;15.50;75.00;;;;;;5073548;28;20369;-77
2021/09/12 01:49:03;;;;;;;;;;;15.40;76.30;;;;;;5055431;28;19912;-77
2021/09/12 01:51:29;;;;;;;;;;;15.40;76.20;;;;;;5055494;28;19947;-77
2021/09/12 01:53:54;;;;;;;;;;;15.40;77.10;;;;;;5055401;28;20396;-77
2021/09/12 01:56:20;;;;;;;;;;;15.40;77.50;;;;;;5073401;28;19912;-77
2021/09/12 01:58:46;;;;;;;;;;;15.40;76.50;;;;;;5073366;28;20281;-77
2021/09/12 02:01:11;;;;;;;;;;;15.40;77.00;;;;;;5073312;28;20000;-77
2021/09/12 02:03:37;;;;;;;;;;;15.30;75.60;;;;;;5073270;28;19923;-77
2021/09/12 02:06:02;;;;;;;;;;;15.30;76.60;;;;;;5055242;28;19935;-77
2021/09/12 02:08:28;;;;;;;;;;;15.30;76.60;;;;;;5073327;28;19948;-77
2021/09/12 02:10:53;;;;;;;;;;;15.30;76.40;;;;;;5055480;28;20017;-77
2021/09/12 02:13:19;;;;;;;;;;;15.30;76.30;;;;;;5055198;28;19923;-77
2021/09/12 02:15:45;;;;;;;;;;;15.20;77.90;;;;;;5056745;28;20347;-77
2021/09/12 02:18:11;;;;;;;;;;;15.20;77.00;;;;;;5073227;28;19978;-77
2021/09/12 02:20:38;;;;;;;;;;;15.20;77.50;;;;;;5073614;28;19966;-77
2021/09/12 02:23:04;;;;;;;;;;;15.20;78.70;;;;;;5073189;28;20016;-77
2021/09/12 02:25:29;;;;;;;;;;;15.10;78.50;;;;;;5073542;28;20280;-77
2021/09/12 02:27:55;;;;;;;;;;;15.10;78.00;;;;;;5055231;28;19909;-77
2021/09/12 02:30:20;;;;;;;;;;;15.10;78.70;;;;;;5073447;28;19921;-77
2021/09/12 02:32:46;;;;;;;;;;;15.10;78.90;;;;;;5055168;28;19908;-77
2021/09/12 02:35:11;;;;;;;;;;;15.10;78.50;;;;;;5073213;28;19928;-77
2021/09/12 02:37:37;;;;;;;;;;;15.10;79.20;;;;;;5073040;28;19908;-77
2021/09/12 02:40:03;;;;;;;;;;;15.00;77.40;;;;;;5073255;28;19917;-77
2021/09/12 02:42:29;;;;;;;;;;;15.00;79.30;;;;;;5072986;28;20003;-75
2021/09/12 02:44:54;;;;;;;;;;;15.00;79.40;;;;;;5076774;28;20040;-75
2021/09/12 02:47:20;;;;;;;;;;;14.90;78.60;;;;;;5058606;28;19909;-75
2021/09/12 02:49:46;;;;;;;;;;;14.90;77.20;;;;;;5076688;28;20019;-75
2021/09/12 02:52:11;;;;;;;;;;;14.90;80.40;;;;;;5058503;28;20293;-75
2021/09/12 02:54:37;;;;;;;;;;;14.90;79.80;;;;;;5058415;28;20316;-75
2021/09/12 02:57:02;;;;;;;;;;;14.90;80.60;;;;;;5058442;28;20304;-75
2021/09/12 02:59:28;;;;;;;;;;;14.80;79.80;;;;;;5076388;28;19916;-75
2021/09/12 03:01:54;;;;;;;;;;;14.80;80.30;;;;;;5076478;28;19916;-75
2021/09/12 03:04:19;;;;;;;;;;;14.80;80.70;;;;;;5076297;28;19924;-76
2021/09/12 03:06:45;;;;;;;;;;;14.80;81.20;;;;;;5076340;28;19908;-76
2021/09/12 03:09:10;;;;;;;;;;;14.70;79.90;;;;;;5058166;28;19999;-76
2021/09/12 03:11:36;;;;;;;;;;;14.80;80.90;;;;;;5076171;28;20024;-76
2021/09/12 03:14:01;;;;;;;;;;;14.70;80.70;;;;;;5076173;28;20429;-76
2021/09/12 03:16:27;;;;;;;;;;;14.70;81.50;;;;;;5077358;28;19975;-76
2021/09/12 03:18:52;;;;;;;;;;;14.70;81.20;;;;;;5076088;28;20361;-76
2021/09/12 03:21:18;;;;;;;;;;;14.70;81.60;;;;;;5075877;28;19908;-76
2021/09/12 03:23:44;;;;;;;;;;;14.60;81.80;;;;;;5075911;28;19908;-76
2021/09/12 03:26:10;;;;;;;;;;;14.60;82.20;;;;;;5076016;28;19913;-76
2021/09/12 03:28:35;;;;;;;;;;;14.70;82.40;;;;;;5075826;28;20262;-76
2021/09/12 03:31:01;;;;;;;;;;;14.60;80.10;;;;;;5075728;28;19909;-77
2021/09/12 03:33:27;;;;;;;;;;;14.60;81.20;;;;;;5075705;28;19916;-77
2021/09/12 03:35:52;;;;;;;;;;;14.60;81.50;;;;;;5076135;28;19924;-76
2021/09/12 03:38:18;;;;;;;;;;;14.60;82.80;;;;;;5057650;28;19916;-76
2021/09/12 03:40:44;;;;;;;;;;;14.60;82.20;;;;;;5076093;28;19921;-76
2021/09/12 03:43:09;;;;;;;;;;;14.60;83.30;;;;;;5075545;28;19914;-77
2021/09/12 03:45:35;;;;;;;;;;;14.60;83.00;;;;;;5075984;28;19916;-76
2021/09/12 03:48:01;;;;;;;;;;;14.70;83.50;;;;;;5057490;28;19915;-76
2021/09/12 03:50:27;;;;;;;;;;;14.70;82.80;;;;;;5075746;28;19917;-76
2021/09/12 03:52:52;;;;;;;;;;;14.70;83.70;;;;;;5074792;28;19939;-76
2021/09/12 03:55:18;;;;;;;;;;;14.80;83.80;;;;;;5075012;28;19924;-76
2021/09/12 03:57:43;;;;;;;;;;;14.80;84.60;;;;;;5074586;28;20005;-76
2021/09/12 04:00:10;;;;;;;;;;;14.90;82.40;;;;;;5057301;28;19927;-76
2021/09/12 04:02:36;;;;;;;;;;;14.90;83.30;;;;;;5075038;28;19908;-76
2021/09/12 04:05:01;;;;;;;;;;;15.00;84.00;;;;;;5075262;28;19923;-76
2021/09/12 04:07:27;;;;;;;;;;;15.10;84.60;;;;;;5055198;28;19983;-76
2021/09/12 04:09:52;;;;;;;;;;;15.20;82.50;;;;;;5055056;28;19943;-76
2021/09/12 04:12:18;;;;;;;;;;;15.30;84.30;;;;;;5073436;28;20293;-77
2021/09/12 04:14:43;;;;;;;;;;;15.40;83.00;;;;;;5074142;28;19929;-76
2021/09/12 04:17:09;;;;;;;;;;;15.50;81.70;;;;;;5076320;28;19923;-77
2021/09/12 04:19:35;;;;;;;;;;;15.60;81.70;;;;;;5074908;28;19923;-77
2021/09/12 04:22:00;;;;;;;;;;;15.60;78.50;;;;;;5056833;28;19908;-76
2021/09/12 04:24:26;;;;;;;;;;;15.80;81.30;;;;;;5074771;28;19916;-76
2021/09/12 04:26:51;;;;;;;;;;;15.80;81.20;;;;;;5074682;28;19908;-76
2021/09/12 04:29:17;;;;;;;;;;;15.90;81.20;;;;;;5074628;28;19913;-76
2021/09/12 04:31:43;;;;;;;;;;;16.10;80.40;;;;;;5074598;28;20357;-77
2021/09/12 04:34:09;;;;;;;;;;;16.30;80.00;;;;;;5074479;28;19921;-77
2021/09/12 04:36:34;;;;;;;;;;;16.30;79.90;;;;;;5056637;28;19978;-76
2021/09/12 04:39:00;;;;;;;;;;;16.50;79.50;;;;;;5074518;28;20339;-76
2021/09/12 04:41:25;;;;;;;;;;;16.70;79.90;;;;;;5074443;28;20375;-77
2021/09/12 04:43:51;;;;;;;;;;;17.00;79.70;;;;;;5074346;28;20361;-76
2021/09/12 04:46:16;;;;;;;;;;;17.40;79.00;;;;;;5074204;28;19912;-77
2021/09/12 04:48:42;;;;;;;;;;;17.80;78.40;;;;;;5074242;28;19908;-77
2021/09/12 04:51:07;;;;;;;;;;;18.20;77.70;;;;;;5074135;28;19912;-77
2021/09/12 04:53:33;;;;;;;;;;;18.80;78.40;;;;;;5074006;28;19916;-77
2021/09/12 04:55:58;;;;;;;;;;;19.40;76.20;;;;;;5056200;28;19916;-77
2021/09/12 04:58:24;;;;;;;;;;;20.00;74.70;;;;;;5074142;28;20328;-77
2021/09/12 05:00:49;;;;;;;;;;;20.50;73.00;;;;;;5056252;28;20415;-76
2021/09/12 05:03:15;;;;;;;;;;;21.00;71.90;;;;;;5055986;28;19913;-76
2021/09/12 05:05:40;;;;;;;;;;;21.40;70.60;;;;;;5055447;28;19935;-76
2021/09/12 05:08:06;;;;;;;;;;;21.80;69.30;;;;;;5073981;28;19957;-77
2021/09/12 05:10:32;;;;;;;;;;;22.20;67.80;;;;;;5074378;28;20281;-77
2021/09/12 05:12:57;;;;;;;;;;;22.60;66.30;;;;;;5074022;28;19932;-77
2021/09/12 05:15:32;;;;;;;;;;;22.90;65.50;;;;;;5074177;28;19959;-77
2021/09/12 05:17:57;;;;;;;;;;;23.30;65.70;;;;;;5073703;28;20030;-77
2021/09/12 05:20:23;;;;;;;;;;;23.50;64.40;;;;;;5074156;28;20416;-76
2021/09/12 05:22:49;;;;;;;;;;;23.80;62.50;;;;;;5055810;28;20388;-77
2021/09/12 05:25:15;;;;;;;;;;;24.10;62.30;;;;;;5073997;28;19917;-77
2021/09/12 05:27:43;;;;;;;;;;;24.30;61.50;;;;;;5072987;28;20639;-79
2021/09/12 05:30:08;;;;;;;;;;;24.60;61.30;;;;;;5074058;28;19912;-77
2021/09/12 05:32:34;;;;;;;;;;;24.80;60.00;;;;;;5073745;28;20343;-78
2021/09/12 05:35:00;;;;;;;;;;;25.10;61.00;;;;;;5073934;28;20350;-77
2021/09/12 05:37:26;;;;;;;;;;;25.40;60.00;;;;;;5073591;28;19995;-77
2021/09/12 05:39:51;;;;;;;;;;;25.70;59.70;;;;;;5073785;28;19948;-78
2021/09/12 05:42:17;;;;;;;;;;;26.10;57.90;;;;;;5055528;28;19912;-77
2021/09/12 05:44:42;;;;;;;;;;;26.40;57.20;;;;;;5073754;28;19967;-77
2021/09/12 05:47:08;;;;;;;;;;;26.70;57.30;;;;;;5073511;28;19913;-77
2021/09/12 05:49:33;;;;;;;;;;;26.90;56.50;;;;;;5073646;28;19912;-77
2021/09/12 05:51:59;;;;;;;;;;;27.20;55.30;;;;;;5073391;28;19917;-77
2021/09/12 05:54:24;;;;;;;;;;;27.40;55.00;;;;;;5055413;28;19946;-76
2021/09/12 05:56:50;;;;;;;;;;;27.60;53.80;;;;;;5073473;28;19916;-76
2021/09/12 05:59:15;;;;;;;;;;;27.80;53.90;;;;;;5073186;28;19962;-75
2021/09/12 06:01:41;;;;;;;;;;;28.00;53.70;;;;;;5055606;28;20277;-75
2021/09/12 06:04:07;;;;;;;;;;;28.30;52.90;;;;;;5055610;28;19908;-75
2021/09/12 06:06:32;;;;;;;;;;;28.40;53.90;;;;;;5055405;28;19917;-76
2021/09/12 06:08:58;;;;;;;;;;;28.70;54.00;;;;;;5073325;28;20435;-77
2021/09/12 06:11:24;;;;;;;;;;;29.00;53.10;;;;;;5073200;28;19917;-76
2021/09/12 06:13:49;;;;;;;;;;;29.30;51.70;;;;;;5073318;28;19956;-77
2021/09/12 06:16:15;;;;;;;;;;;29.50;50.80;;;;;;5074481;28;19921;-77
2021/09/12 06:18:41;;;;;;;;;;;29.70;50.90;;;;;;5076580;28;19909;-76
2021/09/12 06:21:07;;;;;;;;;;;29.90;50.90;;;;;;5076944;28;20258;-75
2021/09/12 06:23:33;;;;;;;;;;;30.20;49.10;;;;;;5076942;28;20365;-76
2021/09/12 06:25:59;;;;;;;;;;;30.60;50.00;;;;;;5076984;28;19920;-75
2021/09/12 06:28:24;;;;;;;;;;;30.70;48.60;;;;;;5058981;28;20023;-75
2021/09/12 06:30:50;;;;;;;;;;;30.90;52.20;;;;;;5059159;28;20365;-75
2021/09/12 06:33:15;;;;;;;;;;;31.10;47.30;;;;;;5076898;28;19912;-75
2021/09/12 06:35:41;;;;;;;;;;;31.20;47.00;;;;;;5077137;28;20011;-75
2021/09/12 06:38:06;;;;;;;;;;;31.60;46.60;;;;;;5077151;28;19967;-76
2021/09/12 06:40:32;;;;;;;;;;;31.80;48.40;;;;;;5077212;28;19912;-76
2021/09/12 06:42:59;;;;;;;;;;;31.90;49.10;;;;;;5076752;28;19912;-77
2021/09/12 06:45:26;;;;;;;;;;;32.10;49.90;;;;;;5076836;28;20019;-76
2021/09/12 06:47:51;;;;;;;;;;;32.20;48.70;;;;;;5076569;28;19936;-76
2021/09/12 06:50:17;;;;;;;;;;;32.30;46.50;;;;;;5076779;28;20373;-75
2021/09/12 06:52:42;;;;;;;;;;;32.50;46.20;;;;;;5076433;28;19919;-76
2021/09/12 06:55:08;;;;;;;;;;;33.00;46.10;;;;;;5076453;28;19928;-75
2021/09/12 06:57:34;;;;;;;;;;;33.40;45.30;;;;;;5075915;28;20610;-76
2021/09/12 06:59:59;;;;;;;;;;;33.60;46.10;;;;;;5076266;28;19966;-75
2021/09/12 07:02:25;;;;;;;;;;;33.50;44.50;;;;;;5076305;28;19966;-76
2021/09/12 07:04:50;;;;;;;;;;;33.70;44.00;;;;;;5058431;28;20277;-77
2021/09/12 07:07:16;;;;;;;;;;;34.20;45.40;;;;;;5076213;28;20266;-76
2021/09/12 07:09:41;;;;;;;;;;;34.70;43.80;;;;;;5076353;28;20358;-77
2021/09/12 07:12:08;;;;;;;;;;;35.10;44.40;;;;;;5076087;28;20289;-76
2021/09/12 07:14:34;;;;;;;;;;;35.40;43.30;;;;;;5076203;28;19920;-76
2021/09/12 07:16:59;;;;;;;;;;;35.50;42.20;;;;;;5089354;22;19971;-76
2021/09/12 07:19:25;;;;;;;;;;;35.60;42.00;;;;;;5076005;28;19908;-77
2021/09/12 07:21:52;;;;;;;;;;;35.70;42.30;;;;;;5076087;28;19952;-77
2021/09/12 07:24:17;;;;;;;;;;;35.60;42.50;;;;;;5076138;28;19908;-77
2021/09/12 07:26:43;;;;;;;;;;;35.30;44.10;;;;;;5076077;28;20310;-76
2021/09/12 07:29:08;;;;;;;;;;;34.80;42.40;;;;;;5057261;28;19916;-76
2021/09/12 07:31:34;;;;;;;;;;;34.30;43.80;;;;;;5058291;28;19912;-76
2021/09/12 07:34:02;;;;;;;;;;;33.70;43.80;;;;;;5075880;28;19921;-77
2021/09/12 07:36:28;;;;;;;;;;;33.20;44.10;;;;;;5075878;28;19912;-76
2021/09/12 07:38:53;;;;;;;;;;;32.60;44.90;;;;;;5075653;28;20015;-76
2021/09/12 07:41:19;;;;;;;;;;;32.30;44.70;;;;;;5075695;28;20007;-76
2021/09/12 07:43:44;;;;;;;;;;;32.50;45.40;;;;;;5075558;28;19913;-76
2021/09/12 07:46:10;;;;;;;;;;;32.90;45.50;;;;;;5075535;28;20324;-76
2021/09/12 07:48:35;;;;;;;;;;;33.20;44.90;;;;;;5057322;28;19913;-76
2021/09/12 07:51:02;;;;;;;;;;;33.50;45.40;;;;;;5075249;28;20324;-76
2021/09/12 07:53:28;;;;;;;;;;;33.60;45.00;;;;;;5075234;28;19917;-76
2021/09/12 07:55:54;;;;;;;;;;;33.70;43.90;;;;;;5075563;28;19917;-78
2021/09/12 07:58:19;;;;;;;;;;;33.80;44.20;;;;;;5075287;28;19917;-77
2021/09/12 08:00:45;;;;;;;;;;;34.00;43.20;;;;;;5057157;28;20373;-76
2021/09/12 08:03:10;;;;;;;;;;;34.30;44.20;;;;;;5075496;28;20342;-77
2021/09/12 08:05:36;;;;;;;;;;;34.40;43.40;;;;;;5074920;28;19928;-76
2021/09/12 08:08:01;;;;;;;;;;;34.50;43.80;;;;;;5075849;28;19913;-77
2021/09/12 08:10:27;;;;;;;;;;;34.60;43.10;;;;;;5057043;28;19913;-76
2021/09/12 08:12:52;;;;;;;;;;;35.20;42.90;;;;;;5074753;28;19951;-76
2021/09/12 08:15:18;;;;;;;;;;;35.90;41.70;;;;;;5074651;28;19924;-76
2021/09/12 08:17:43;;;;;;;;;;;36.60;41.90;;;;;;5076484;28;19916;-77
2021/09/12 08:20:09;;;;;;;;;;;37.30;41.30;;;;;;5074776;28;20002;-77
2021/09/12 08:22:35;;;;;;;;;;;38.10;41.40;;;;;;5074383;28;19943;-77
2021/09/12 08:25:00;;;;;;;;;;;38.80;39.50;;;;;;5056875;28;19914;-77
2021/09/12 08:27:26;;;;;;;;;;;39.60;38.40;;;;;;5075417;28;20311;-77
2021/09/12 08:29:51;;;;;;;;;;;40.30;38.90;;;;;;5058131;28;19919;-77
2021/09/12 08:32:17;;;;;;;;;;;40.80;39.60;;;;;;5058045;28;20435;-77
2021/09/12 08:34:42;;;;;;;;;;;41.20;38.70;;;;;;5075498;28;19927;-77
2021/09/12 08:37:09;;;;;;;;;;;41.50;36.70;;;;;;5078501;28;19920;-77
2021/09/12 08:39:35;;;;;;;;;;;41.90;37.70;;;;;;5058053;28;20293;-77
2021/09/12 08:42:00;;;;;;;;;;;42.10;36.90;;;;;;5073397;28;19919;-77
2021/09/12 08:44:26;;;;;;;;;;;42.00;35.10;;;;;;5075073;28;19912;-77
2021/09/12 08:46:51;;;;;;;;;;;41.90;35.10;;;;;;5074591;28;19913;-77
2021/09/12 08:49:17;;;;;;;;;;;42.20;35.90;;;;;;5075889;28;20049;-77
2021/09/12 08:51:43;;;;;;;;;;;42.30;34.00;;;;;;5074688;28;20066;-77
2021/09/12 08:54:08;;;;;;;;;;;42.60;35.60;;;;;;5075723;28;19936;-77
2021/09/12 08:56:34;;;;;;;;;;;42.90;35.70;;;;;;5074792;28;19931;-77
2021/09/12 08:58:59;;;;;;;;;;;43.00;35.00;;;;;;5074904;28;19913;-77
2021/09/12 09:01:32;;;;;;;;;;;42.80;36.00;;;;;;5074308;28;19972;-77
2021/09/12 09:04:02;;;;;;;;;;;42.50;34.00;;;;;;5056586;28;19914;-77
2021/09/12 09:06:34;;;;;;;;;;;42.30;34.30;;;;;;5074247;28;20370;-77
2021/09/12 09:09:00;;;;;;;;;;;42.80;33.70;;;;;;5074463;28;19965;-77
2021/09/12 09:11:36;;;;;;;;;;;43.30;34.20;;;;;;5074364;28;20312;-77
2021/09/12 09:14:30;;;;;;;;;;;43.50;34.40;;;;;;5075509;28;20432;-77
2021/09/12 09:16:55;;;;;;;;;;;43.50;34.70;;;;;;5056881;28;19921;-77
2021/09/12 09:19:22;;;;;;;;;;;43.60;33.20;;;;;;5075236;28;19960;-77
2021/09/12 09:21:48;;;;;;;;;;;43.80;33.60;;;;;;5075572;28;19908;-77
2021/09/12 09:24:15;;;;;;;;;;;44.10;33.70;;;;;;5075396;28;19917;-77
2021/09/12 09:26:45;;;;;;;;;;;44.10;32.90;;;;;;5057210;28;19909;-77
2021/09/12 09:29:11;;;;;;;;;;;44.10;34.10;;;;;;5074586;28;19924;-77
2021/09/12 09:31:37;;;;;;;;;;;43.80;32.20;;;;;;5074016;28;19909;-77
2021/09/12 09:34:12;;;;;;;;;;;43.30;31.60;;;;;;5057195;28;19928;-77
2021/09/12 09:36:37;;;;;;;;;;;43.20;32.10;;;;;;5074543;28;19951;-77
2021/09/12 09:39:03;;;;;;;;;;;43.50;32.80;;;;;;5056950;28;19917;-77
2021/09/12 09:41:34;;;;;;;;;;;44.00;32.60;;;;;;5074541;28;19912;-77
2021/09/12 09:44:06;;;;;;;;;;;44.50;33.40;;;;;;5073893;28;20003;-76
2021/09/12 09:46:36;;;;;;;;;;;44.90;30.90;;;;;;5073341;28;19908;-75
2021/09/12 09:49:22;;;;;;;;;;;44.80;31.30;;;;;;5073788;28;19916;-76
2021/09/12 09:51:50;;;;;;;;;;;44.90;31.60;;;;;;5055587;28;20328;-76
2021/09/12 09:54:16;;;;;;;;;;;44.70;32.20;;;;;;5059565;28;19925;-76
2021/09/12 09:56:44;;;;;;;;;;;44.80;31.30;;;;;;5059450;28;19916;-76
2021/09/12 09:59:11;;;;;;;;;;;45.30;31.00;;;;;;5077954;28;19920;-76
2021/09/12 10:01:36;;;;;;;;;;;45.40;31.90;;;;;;5059431;28;19915;-76
2021/09/12 10:04:02;;;;;;;;;;;45.00;31.50;;;;;;5077753;28;20007;-76
2021/09/12 10:06:28;;;;;;;;;;;45.10;31.30;;;;;;5077573;28;20234;-77
2021/09/12 10:08:53;;;;;;;;;;;44.90;31.00;;;;;;5077236;28;19916;-76
2021/09/12 10:11:19;;;;;;;;;;;44.60;31.00;;;;;;5076852;28;20305;-76
2021/09/12 10:13:46;;;;;;;;;;;44.40;30.80;;;;;;5077316;28;20381;-76
2021/09/12 10:16:18;;;;;;;;;;;44.20;30.30;;;;;;5077658;28;20266;-76
2021/09/12 10:18:45;;;;;;;;;;;43.80;30.00;;;;;;5077328;28;20337;-76
2021/09/12 10:21:20;;;;;;;;;;;43.70;29.90;;;;;;5076899;28;19916;-76
2021/09/12 10:23:55;;;;;;;;;;;43.70;30.60;;;;;;5077104;28;19923;-76
2021/09/12 10:26:31;;;;;;;;;;;43.70;31.10;;;;;;5058885;28;19913;-76
2021/09/12 10:28:56;;;;;;;;;;;43.70;30.70;;;;;;5079027;28;19943;-76
2021/09/12 10:31:30;;;;;;;;;;;43.90;30.20;;;;;;5076730;28;20348;-76
2021/09/12 10:34:16;;;;;;;;;;;44.10;30.60;;;;;;5076983;28;19913;-76
2021/09/12 10:36:42;;;;;;;;;;;44.30;30.40;;;;;;5076384;28;19919;-76
2021/09/12 10:39:23;;;;;;;;;;;44.70;29.90;;;;;;5058839;28;19917;-76
2021/09/12 10:42:03;;;;;;;;;;;44.90;30.10;;;;;;5058558;28;20251;-76
2021/09/12 10:44:29;;;;;;;;;;;45.00;30.20;;;;;;5076802;28;19970;-76
2021/09/12 10:47:04;;;;;;;;;;;44.80;30.10;;;;;;5076491;28;19913;-76
2021/09/12 10:49:30;;;;;;;;;;;44.20;30.00;;;;;;5077005;28;19913;-76
2021/09/12 10:51:56;;;;;;;;;;;43.50;29.90;;;;;;5076369;28;19913;-76
2021/09/12 10:54:21;;;;;;;;;;;43.70;29.90;;;;;;5076645;28;20269;-76
2021/09/12 10:57:02;;;;;;;;;;;43.80;30.00;;;;;;5076259;28;19912;-76
2021/09/12 10:59:28;;;;;;;;;;;43.90;29.30;;;;;;5076793;28;19920;-76
2021/09/12 11:01:55;;;;;;;;;;;44.40;29.70;;;;;;5076125;28;19913;-76
2021/09/12 11:04:27;;;;;;;;;;;44.90;30.00;;;;;;5075540;28;20011;-76
2021/09/12 11:06:57;;;;;;;;;;;44.90;29.90;;;;;;5076201;28;19963;-76
2021/09/12 11:09:23;;;;;;;;;;;44.50;29.60;;;;;;5076511;28;19913;-76
2021/09/12 11:11:53;;;;;;;;;;;43.40;29.30;;;;;;5075991;28;19962;-76
2021/09/12 11:14:19;;;;;;;;;;;42.30;29.50;;;;;;5076234;28;19924;-76
2021/09/12 11:16:45;;;;;;;;;;;41.30;30.00;;;;;;5077248;28;19912;-77
2021/09/12 11:19:11;;;;;;;;;;;40.80;30.00;;;;;;5076194;28;20353;-76
2021/09/12 11:21:37;;;;;;;;;;;40.80;30.40;;;;;;5057851;28;20369;-76
2021/09/12 11:24:02;;;;;;;;;;;41.20;30.70;;;;;;5076070;28;19917;-76
2021/09/12 11:26:35;;;;;;;;;;;41.90;31.20;;;;;;5076080;28;19965;-76
2021/09/12 11:29:07;;;;;;;;;;;42.20;30.00;;;;;;5076008;28;19917;-76
2021/09/12 11:31:34;;;;;;;;;;;42.30;30.00;;;;;;5075669;28;19951;-76
2021/09/12 11:34:00;;;;;;;;;;;42.70;29.90;;;;;;5075892;28;19920;-76
2021/09/12 11:36:25;;;;;;;;;;;43.50;30.10;;;;;;5075611;28;20002;-76
2021/09/12 11:38:58;;;;;;;;;;;44.20;29.90;;;;;;5075617;28;19920;-76
2021/09/12 11:41:27;;;;;;;;;;;44.70;29.60;;;;;;5075116;28;19909;-76
2021/09/12 11:43:54;;;;;;;;;;;45.00;29.40;;;;;;5074772;28;19942;-76
2021/09/12 11:46:19;;;;;;;;;;;44.90;28.90;;;;;;5074625;28;19931;-76
2021/09/12 11:48:52;;;;;;;;;;;44.40;29.50;;;;;;5075394;28;19924;-76
2021/09/12 11:51:31;;;;;;;;;;;44.40;29.70;;;;;;5075091;28;19997;-76
2021/09/12 11:54:03;;;;;;;;;;;44.40;29.50;;;;;;5057010;28;19916;-76
2021/09/12 11:56:29;;;;;;;;;;;44.30;29.40;;;;;;5074156;28;20369;-76
2021/09/12 11:58:55;;;;;;;;;;;44.20;29.60;;;;;;5073155;28;19919;-76
2021/09/12 12:01:20;;;;;;;;;;;44.30;29.50;;;;;;5073132;28;20308;-76
2021/09/12 12:03:46;;;;;;;;;;;44.00;29.50;;;;;;5073129;28;19983;-76
2021/09/12 12:06:11;;;;;;;;;;;43.00;29.40;;;;;;5072807;28;20269;-76
2021/09/12 12:08:57;;;;;;;;;;;41.60;29.80;;;;;;5072990;28;19913;-76
2021/09/12 12:11:22;;;;;;;;;;;40.50;30.40;;;;;;5073107;28;19912;-76
2021/09/12 12:13:48;;;;;;;;;;;40.10;30.80;;;;;;5074926;28;19919;-76
2021/09/12 12:16:13;;;;;;;;;;;40.80;31.30;;;;;;5074939;28;19913;-77
2021/09/12 12:18:39;;;;;;;;;;;41.60;30.30;;;;;;5076579;28;19928;-76
2021/09/12 12:21:12;;;;;;;;;;;42.30;30.20;;;;;;5056675;28;19908;-76
2021/09/12 12:23:38;;;;;;;;;;;42.70;29.70;;;;;;5074767;28;19999;-76
2021/09/12 12:26:15;;;;;;;;;;;43.20;30.00;;;;;;5074388;28;19908;-76
2021/09/12 12:28:41;;;;;;;;;;;43.60;29.70;;;;;;5056795;28;20287;-76
2021/09/12 12:31:16;;;;;;;;;;;43.70;29.70;;;;;;5074390;28;19916;-76
2021/09/12 12:33:44;;;;;;;;;;;43.90;29.80;;;;;;5074375;28;19977;-76
2021/09/12 12:36:10;;;;;;;;;;;43.80;29.60;;;;;;5074179;28;19927;-76
2021/09/12 12:38:36;;;;;;;;;;;43.40;29.60;;;;;;5074594;28;19916;-76
2021/09/12 12:41:25;;;;;;;;;;;42.70;29.80;;;;;;5074251;28;19909;-76
2021/09/12 12:43:51;;;;;;;;;;;41.60;29.90;;;;;;5074444;28;19923;-76
2021/09/12 12:46:17;;;;;;;;;;;40.50;30.30;;;;;;5056171;28;19909;-76
2021/09/12 12:48:42;;;;;;;;;;;39.90;31.00;;;;;;5074322;28;20365;-76
2021/09/12 12:51:15;;;;;;;;;;;39.80;31.30;;;;;;5073923;28;19909;-75
2021/09/12 12:53:45;;;;;;;;;;;39.60;30.90;;;;;;5074219;28;19924;-76
2021/09/12 12:56:23;;;;;;;;;;;39.10;30.90;;;;;;5055870;28;19960;-75
2021/09/12 12:58:49;;;;;;;;;;;38.00;31.00;;;;;;5074115;28;20015;-75
2021/09/12 13:01:14;;;;;;;;;;;37.10;31.70;;;;;;5055993;28;19936;-76
2021/09/12 13:03:40;;;;;;;;;;;37.10;32.40;;;;;;5074127;28;20350;-76
2021/09/12 13:06:07;;;;;;;;;;;37.80;32.70;;;;;;5073757;28;19909;-76
2021/09/12 13:08:33;;;;;;;;;;;38.80;32.00;;;;;;5073995;28;19967;-76
2021/09/12 13:10:59;;;;;;;;;;;39.80;31.30;;;;;;5055726;28;19943;-76
2021/09/12 13:13:25;;;;;;;;;;;40.40;30.90;;;;;;5073679;28;20407;-76
2021/09/12 13:15:51;;;;;;;;;;;40.80;30.50;;;;;;5073616;28;19917;-76
2021/09/12 13:18:17;;;;;;;;;;;41.10;30.30;;;;;;5075123;28;20018;-76
2021/09/12 13:20:43;;;;;;;;;;;41.20;30.00;;;;;;5073974;28;20064;-76
2021/09/12 13:23:09;;;;;;;;;;;40.70;30.20;;;;;;5073723;28;20042;-76
2021/09/12 13:25:35;;;;;;;;;;;40.60;30.60;;;;;;5073817;28;19962;-76
2021/09/12 13:28:01;;;;;;;;;;;41.20;30.20;;;;;;5073121;28;19916;-76
2021/09/12 13:30:27;;;;;;;;;;;41.80;29.80;;;;;;5073615;28;20006;-76
2021/09/12 13:32:53;;;;;;;;;;;42.10;29.80;;;;;;5073422;28;19920;-76
2021/09/12 13:35:19;;;;;;;;;;;42.50;29.70;;;;;;5073739;28;20525;-77
2021/09/12 13:37:45;;;;;;;;;;;42.70;29.60;;;;;;5055635;28;20269;-76
2021/09/12 13:40:11;;;;;;;;;;;42.60;29.50;;;;;;5076731;28;19999;-76
2021/09/12 13:42:37;;;;;;;;;;;42.40;29.30;;;;;;5056261;28;19908;-76
2021/09/12 13:45:04;;;;;;;;;;;42.50;29.30;;;;;;5074050;28;20320;-76
2021/09/12 13:47:29;;;;;;;;;;;42.40;29.20;;;;;;5055829;28;19912;-76
2021/09/12 13:49:55;;;;;;;;;;;42.60;29.30;;;;;;5073884;28;20319;-76
2021/09/12 13:52:20;;;;;;;;;;;42.70;29.40;;;;;;5073465;28;19957;-76
2021/09/12 13:54:46;;;;;;;;;;;42.30;29.50;;;;;;5073745;28;19927;-76
2021/09/12 13:57:11;;;;;;;;;;;42.20;29.30;;;;;;5055272;28;19935;-76
2021/09/12 13:59:37;;;;;;;;;;;41.90;29.40;;;;;;5074011;28;19943;-77
2021/09/12 14:02:03;;;;;;;;;;;41.50;29.60;;;;;;5073249;28;20278;-76
2021/09/12 14:04:28;;;;;;;;;;;41.40;29.60;;;;;;5073505;28;20031;-76
2021/09/12 14:06:54;;;;;;;;;;;41.10;29.60;;;;;;5073120;28;19913;-76
2021/09/12 14:09:19;;;;;;;;;;;40.90;29.90;;;;;;5073565;28;19916;-76
2021/09/12 14:11:45;;;;;;;;;;;40.90;29.90;;;;;;5072894;28;19913;-76
2021/09/12 14:14:13;;;;;;;;;;;40.80;30.10;;;;;;5073374;28;19927;-76